createdAt,value
2023-04-02T00:00:04.686Z,957.74
2023-04-02T00:01:04.731Z,957.79
2023-04-02T00:02:04.807Z,957.85
2023-04-02T00:03:04.916Z,957.81
2023-04-02T00:04:04.972Z,957.83
2023-04-02T00:05:05.027Z,957.87
2023-04-02T00:06:05.038Z,957.83
2023-04-02T00:07:05.087Z,957.83
2023-04-02T00:08:05.140Z,957.83
2023-04-02T00:09:05.228Z,957.85
2023-04-02T00:10:05.240Z,957.87
2023-04-02T00:11:05.321Z,957.87
2023-04-02T00:12:05.369Z,957.86
2023-04-02T00:13:05.441Z,957.89
2023-04-02T00:14:05.507Z,957.87
2023-04-02T00:15:05.566Z,957.86
2023-04-02T00:16:05.676Z,957.86
2023-04-02T00:17:05.712Z,957.86
2023-04-02T00:18:05.828Z,957.86
2023-04-02T00:19:05.865Z,957.85
2023-04-02T00:20:05.938Z,957.91
2023-04-02T00:21:05.975Z,957.88
2023-04-02T00:22:06.044Z,957.91
2023-04-02T00:23:06.118Z,957.87
2023-04-02T00:24:06.195Z,957.87
2023-04-02T00:25:06.271Z,957.87
2023-04-02T00:26:06.340Z,957.87
2023-04-02T00:27:06.400Z,957.88
2023-04-02T00:28:06.486Z,957.87
2023-04-02T00:29:06.567Z,957.90
2023-04-02T00:30:06.617Z,957.89
2023-04-02T00:31:06.689Z,957.92
2023-04-02T00:32:06.831Z,957.90
2023-04-02T00:33:06.823Z,957.90
2023-04-02T00:34:06.935Z,957.89
2023-04-02T00:35:06.938Z,957.89
2023-04-02T00:36:07.003Z,957.89
2023-04-02T00:37:07.088Z,957.90
2023-04-02T00:38:07.121Z,957.92
2023-04-02T00:39:07.196Z,957.90
2023-04-02T00:40:07.297Z,957.92
2023-04-02T00:41:07.271Z,957.91
2023-04-02T00:42:07.322Z,957.90
2023-04-02T00:43:07.394Z,957.90
2023-04-02T00:44:07.462Z,957.92
2023-04-02T00:45:07.520Z,957.94
2023-04-02T00:46:07.645Z,957.97
2023-04-02T00:47:07.619Z,957.96
2023-04-02T00:48:07.913Z,957.96
2023-04-02T00:49:07.768Z,957.94
2023-04-02T00:50:07.813Z,957.95
2023-04-02T00:51:07.877Z,957.93
2023-04-02T00:52:07.979Z,957.93
2023-04-02T00:53:07.996Z,957.93
2023-04-02T00:54:08.080Z,957.92
2023-04-02T00:55:08.167Z,957.93
2023-04-02T00:56:08.204Z,957.93
2023-04-02T00:57:08.275Z,957.92
2023-04-02T00:58:08.327Z,957.92
2023-04-02T00:59:08.384Z,957.93
2023-04-02T01:00:08.438Z,957.94
2023-04-02T01:01:08.581Z,957.96
2023-04-02T01:02:08.565Z,957.98
2023-04-02T01:03:08.614Z,957.98
2023-04-02T01:04:08.676Z,957.98
2023-04-02T01:05:08.702Z,957.97
2023-04-02T01:06:08.753Z,957.98
2023-04-02T01:07:08.856Z,957.99
2023-04-02T01:08:08.882Z,957.98
2023-04-02T01:09:08.973Z,957.98
2023-04-02T01:10:08.992Z,957.98
2023-04-02T01:11:09.045Z,957.98
2023-04-02T01:12:09.096Z,957.98
2023-04-02T01:13:09.164Z,957.99
2023-04-02T01:14:09.246Z,958.00
2023-04-02T01:15:09.291Z,958.00
2023-04-02T01:16:09.419Z,958.03
2023-04-02T01:17:09.447Z,958.02
2023-04-02T01:18:09.493Z,958.04
2023-04-02T01:19:09.584Z,958.05
2023-04-02T01:20:09.635Z,958.04
2023-04-02T01:21:09.678Z,958.04
2023-04-02T01:22:09.766Z,958.08
2023-04-02T01:23:09.807Z,958.10
2023-04-02T01:24:09.885Z,958.12
2023-04-02T01:25:09.952Z,958.12
2023-04-02T01:26:10.004Z,958.17
2023-04-02T01:27:10.049Z,958.14
2023-04-02T01:28:10.132Z,958.18
2023-04-02T01:29:10.206Z,958.18
2023-04-02T01:30:10.250Z,958.18
2023-04-02T01:31:10.335Z,958.20
2023-04-02T01:32:10.411Z,958.19
2023-04-02T01:33:10.465Z,958.22
2023-04-02T01:34:10.546Z,958.21
2023-04-02T01:35:10.594Z,958.23
2023-04-02T01:36:10.736Z,958.21
2023-04-02T01:37:10.702Z,958.25
2023-04-02T01:38:10.801Z,958.23
2023-04-02T01:39:10.831Z,958.23
2023-04-02T01:40:10.900Z,958.24
2023-04-02T01:41:10.956Z,958.26
2023-04-02T01:42:11.012Z,958.24
2023-04-02T01:43:11.064Z,958.24
2023-04-02T01:44:11.146Z,958.26
2023-04-02T01:45:11.182Z,958.27
2023-04-02T01:46:11.249Z,958.29
2023-04-02T01:47:11.290Z,958.28
2023-04-02T01:48:11.334Z,958.28
2023-04-02T01:49:11.437Z,958.29
2023-04-02T01:50:11.442Z,958.30
2023-04-02T01:51:11.497Z,958.34
2023-04-02T01:52:11.561Z,958.33
2023-04-02T01:53:11.635Z,958.31
2023-04-02T01:54:11.883Z,958.32
2023-04-02T01:55:11.763Z,958.34
2023-04-02T01:56:11.826Z,958.37
2023-04-02T01:57:11.895Z,958.34
2023-04-02T01:58:11.920Z,958.33
2023-04-02T01:59:12.026Z,958.33
2023-04-02T02:00:12.045Z,958.33
2023-04-02T02:01:12.152Z,958.34
2023-04-02T02:02:12.233Z,958.37
2023-04-02T02:03:12.318Z,958.38
2023-04-02T02:04:12.349Z,958.37
2023-04-02T02:05:12.365Z,958.45
2023-04-02T02:06:12.446Z,958.43
2023-04-02T02:07:15.218Z,958.42
2023-04-02T02:08:12.565Z,958.43
2023-04-02T02:09:12.669Z,958.43
2023-04-02T02:10:12.690Z,958.42
2023-04-02T02:11:12.757Z,958.43
2023-04-02T02:12:12.813Z,958.46
2023-04-02T02:13:12.876Z,958.46
2023-04-02T02:14:12.951Z,958.49
2023-04-02T02:15:12.965Z,958.49
2023-04-02T02:16:13.056Z,958.51
2023-04-02T02:17:13.102Z,958.51
2023-04-02T02:18:13.172Z,958.54
2023-04-02T02:19:13.211Z,958.53
2023-04-02T02:20:13.278Z,958.53
2023-04-02T02:21:13.376Z,958.56
2023-04-02T02:22:13.414Z,958.53
2023-04-02T02:23:13.464Z,958.52
2023-04-02T02:24:13.546Z,958.55
2023-04-02T02:25:13.602Z,958.55
2023-04-02T02:26:13.664Z,958.56
2023-04-02T02:27:13.727Z,958.56
2023-04-02T02:28:13.776Z,958.58
2023-04-02T02:29:13.839Z,958.58
2023-04-02T02:30:13.991Z,958.60
2023-04-02T02:31:13.941Z,958.61
2023-04-02T02:32:14.019Z,958.62
2023-04-02T02:33:14.060Z,958.61
2023-04-02T02:34:14.190Z,958.62
2023-04-02T02:35:14.197Z,958.61
2023-04-02T02:36:14.320Z,958.60
2023-04-02T02:37:14.325Z,958.59
2023-04-02T02:38:14.381Z,958.59
2023-04-02T02:39:14.447Z,958.60
2023-04-02T02:40:14.508Z,958.60
2023-04-02T02:41:14.585Z,958.62
2023-04-02T02:42:14.644Z,958.60
2023-04-02T02:43:14.720Z,958.61
2023-04-02T02:44:14.801Z,958.61
2023-04-02T02:45:14.798Z,958.63
2023-04-02T02:46:14.880Z,958.61
2023-04-02T02:47:14.896Z,958.61
2023-04-02T02:48:14.959Z,958.61
2023-04-02T02:49:15.026Z,958.64
2023-04-02T02:50:15.087Z,958.64
2023-04-02T02:51:15.687Z,958.63
2023-04-02T02:52:15.202Z,958.64
2023-04-02T02:53:15.263Z,958.67
2023-04-02T02:54:15.365Z,958.65
2023-04-02T02:55:15.371Z,958.66
2023-04-02T02:56:15.447Z,958.67
2023-04-02T02:57:15.534Z,958.68
2023-04-02T02:58:15.590Z,958.70
2023-04-02T02:59:15.651Z,958.71
2023-04-02T03:00:15.703Z,958.69
2023-04-02T03:01:15.796Z,958.70
2023-04-02T03:02:15.829Z,958.72
2023-04-02T03:03:15.947Z,958.73
2023-04-02T03:04:16.303Z,958.73
2023-04-02T03:05:16.014Z,958.77
2023-04-02T03:06:16.069Z,958.77
2023-04-02T03:07:16.141Z,958.78
2023-04-02T03:08:16.183Z,958.79
2023-04-02T03:09:16.261Z,958.82
2023-04-02T03:10:16.337Z,958.84
2023-04-02T03:11:16.388Z,958.86
2023-04-02T03:12:16.446Z,958.85
2023-04-02T03:13:16.521Z,958.86
2023-04-02T03:14:16.588Z,958.87
2023-04-02T03:15:16.611Z,958.88
2023-04-02T03:16:16.738Z,958.91
2023-04-02T03:17:16.731Z,958.91
2023-04-02T03:18:16.801Z,958.95
2023-04-02T03:19:16.869Z,958.92
2023-04-02T03:20:16.922Z,958.92
2023-04-02T03:21:16.976Z,958.95
2023-04-02T03:22:17.038Z,958.96
2023-04-02T03:23:18.389Z,958.97
2023-04-02T03:24:17.168Z,958.99
2023-04-02T03:25:17.186Z,959.01
2023-04-02T03:26:17.256Z,958.99
2023-04-02T03:27:17.300Z,959.04
2023-04-02T03:28:17.357Z,959.01
2023-04-02T03:29:17.442Z,959.02
2023-04-02T03:30:17.513Z,959.06
2023-04-02T03:31:17.615Z,959.04
2023-04-02T03:32:17.653Z,959.04
2023-04-02T03:33:17.720Z,959.05
2023-04-02T03:34:17.814Z,959.04
2023-04-02T03:35:17.836Z,959.05
2023-04-02T03:36:17.934Z,959.06
2023-04-02T03:37:17.934Z,959.07
2023-04-02T03:38:17.998Z,959.08
2023-04-02T03:39:18.067Z,959.08
2023-04-02T03:40:18.113Z,959.09
2023-04-02T03:41:18.167Z,959.11
2023-04-02T03:42:18.233Z,959.12
2023-04-02T03:43:18.285Z,959.11
2023-04-02T03:44:18.356Z,959.12
2023-04-02T03:45:18.428Z,959.13
2023-04-02T03:46:18.525Z,959.13
2023-04-02T03:47:18.542Z,959.14
2023-04-02T03:48:18.616Z,959.11
2023-04-02T03:49:18.681Z,959.14
2023-04-02T03:50:18.740Z,959.14
2023-04-02T03:51:18.804Z,959.13
2023-04-02T03:52:18.878Z,959.14
2023-04-02T03:53:18.926Z,959.17
2023-04-02T03:54:18.996Z,959.17
2023-04-02T03:55:19.067Z,959.17
2023-04-02T03:56:19.136Z,959.20
2023-04-02T03:57:19.213Z,959.18
2023-04-02T03:58:19.260Z,959.19
2023-04-02T03:59:19.345Z,959.21
2023-04-02T04:00:19.398Z,959.22
2023-04-02T04:01:19.396Z,959.26
2023-04-02T04:02:19.495Z,959.26
2023-04-02T04:03:19.530Z,959.24
2023-04-02T04:04:19.738Z,959.25
2023-04-02T04:05:19.651Z,959.28
2023-04-02T04:06:20.236Z,959.31
2023-04-02T04:07:19.761Z,959.29
2023-04-02T04:08:19.809Z,959.30
2023-04-02T04:09:19.889Z,959.31
2023-04-02T04:10:19.918Z,959.35
2023-04-02T04:11:20.110Z,959.34
2023-04-02T04:12:20.019Z,959.36
2023-04-02T04:13:20.074Z,959.39
2023-04-02T04:14:20.162Z,959.44
2023-04-02T04:15:20.203Z,959.44
2023-04-02T04:16:20.307Z,959.43
2023-04-02T04:17:20.319Z,959.45
2023-04-02T04:18:20.360Z,959.44
2023-04-02T04:19:20.427Z,959.50
2023-04-02T04:20:20.496Z,959.49
2023-04-02T04:21:20.533Z,959.51
2023-04-02T04:22:20.589Z,959.52
2023-04-02T04:23:20.647Z,959.53
2023-04-02T04:24:20.724Z,959.52
2023-04-02T04:25:20.775Z,959.51
2023-04-02T04:26:20.847Z,959.54
2023-04-02T04:27:20.891Z,959.53
2023-04-02T04:28:20.946Z,959.57
2023-04-02T04:29:21.026Z,959.57
2023-04-02T04:30:21.061Z,959.59
2023-04-02T04:31:22.296Z,959.60
2023-04-02T04:32:21.312Z,959.63
2023-04-02T04:33:21.232Z,959.68
2023-04-02T04:34:21.324Z,959.67
2023-04-02T04:35:21.372Z,959.65
2023-04-02T04:36:21.463Z,959.67
2023-04-02T04:37:21.530Z,959.67
2023-04-02T04:38:21.605Z,959.69
2023-04-02T04:39:21.698Z,959.74
2023-04-02T04:40:21.708Z,959.71
2023-04-02T04:41:22.186Z,959.73
2023-04-02T04:42:21.846Z,959.72
2023-04-02T04:43:21.888Z,959.72
2023-04-02T04:44:21.976Z,959.79
2023-04-02T04:45:22.049Z,959.77
2023-04-02T04:46:22.148Z,959.79
2023-04-02T04:47:22.299Z,959.82
2023-04-02T04:48:22.242Z,959.84
2023-04-02T04:49:22.347Z,959.84
2023-04-02T04:50:22.352Z,959.88
2023-04-02T04:51:22.408Z,959.87
2023-04-02T04:52:22.485Z,959.86
2023-04-02T04:53:22.559Z,959.87
2023-04-02T04:54:22.725Z,959.89
2023-04-02T04:55:22.707Z,959.91
2023-04-02T04:56:22.733Z,959.90
2023-04-02T04:57:22.873Z,959.91
2023-04-02T04:58:22.866Z,959.93
2023-04-02T04:59:22.974Z,959.95
2023-04-02T05:00:23.015Z,959.95
2023-04-02T05:01:23.149Z,959.94
2023-04-02T05:02:25.003Z,959.96
2023-04-02T05:03:23.229Z,959.97
2023-04-02T05:04:24.301Z,959.98
2023-04-02T05:05:23.350Z,959.96
2023-04-02T05:06:24.187Z,959.97
2023-04-02T05:07:23.453Z,960.00
2023-04-02T05:08:23.524Z,960.00
2023-04-02T05:09:23.616Z,960.04
2023-04-02T05:10:23.660Z,960.02
2023-04-02T05:11:23.744Z,960.01
2023-04-02T05:12:23.801Z,960.01
2023-04-02T05:13:23.835Z,960.03
2023-04-02T05:14:23.906Z,960.02
2023-04-02T05:15:23.963Z,960.04
2023-04-02T05:16:24.094Z,960.08
2023-04-02T05:17:24.097Z,960.09
2023-04-02T05:18:24.134Z,960.07
2023-04-02T05:19:24.214Z,960.11
2023-04-02T05:20:24.281Z,960.11
2023-04-02T05:21:24.352Z,960.13
2023-04-02T05:22:24.405Z,960.14
2023-04-02T05:23:24.452Z,960.16
2023-04-02T05:24:24.537Z,960.16
2023-04-02T05:25:24.563Z,960.19
2023-04-02T05:26:24.618Z,960.18
2023-04-02T05:27:24.686Z,960.17
2023-04-02T05:28:24.770Z,960.19
2023-04-02T05:29:24.871Z,960.22
2023-04-02T05:30:24.912Z,960.24
2023-04-02T05:31:25.003Z,960.25
2023-04-02T05:32:25.135Z,960.24
2023-04-02T05:33:25.099Z,960.27
2023-04-02T05:34:25.184Z,960.28
2023-04-02T05:35:25.185Z,960.28
2023-04-02T05:36:25.355Z,960.32
2023-04-02T05:37:25.288Z,960.30
2023-04-02T05:38:25.596Z,960.31
2023-04-02T05:39:25.467Z,960.32
2023-04-02T05:40:25.489Z,960.32
2023-04-02T05:41:25.780Z,960.33
2023-04-02T05:42:25.595Z,960.33
2023-04-02T05:43:25.649Z,960.34
2023-04-02T05:44:27.529Z,960.38
2023-04-02T05:45:25.759Z,960.40
2023-04-02T05:46:25.827Z,960.41
2023-04-02T05:47:25.891Z,960.43
2023-04-02T05:48:25.928Z,960.45
2023-04-02T05:49:25.981Z,960.48
2023-04-02T05:50:26.036Z,960.48
2023-04-02T05:51:26.101Z,960.49
2023-04-02T05:52:26.150Z,960.50
2023-04-02T05:53:26.202Z,960.52
2023-04-02T05:54:26.292Z,960.55
2023-04-02T05:55:26.302Z,960.56
2023-04-02T05:56:26.360Z,960.56
2023-04-02T05:57:39.586Z,960.58
2023-04-02T05:59:26.552Z,960.63
2023-04-02T06:00:26.643Z,960.64
2023-04-02T06:01:26.648Z,960.64
2023-04-02T06:02:26.802Z,960.66
2023-04-02T06:03:26.861Z,960.68
2023-04-02T06:04:28.756Z,960.70
2023-04-02T06:05:26.908Z,960.71
2023-04-02T06:06:26.976Z,960.68
2023-04-02T06:07:27.028Z,960.74
2023-04-02T06:08:27.081Z,960.70
2023-04-02T06:09:27.160Z,960.72
2023-04-02T06:10:27.257Z,960.75
2023-04-02T06:11:27.267Z,960.80
2023-04-02T06:12:27.300Z,960.81
2023-04-02T06:13:27.355Z,960.83
2023-04-02T06:14:27.433Z,960.82
2023-04-02T06:15:27.500Z,960.80
2023-04-02T06:16:27.555Z,960.83
2023-04-02T06:17:27.642Z,960.87
2023-04-02T06:18:27.712Z,960.88
2023-04-02T06:19:27.800Z,960.90
2023-04-02T06:20:27.800Z,960.90
2023-04-02T06:21:27.861Z,960.90
2023-04-02T06:22:28.012Z,960.90
2023-04-02T06:23:28.009Z,960.93
2023-04-02T06:24:28.090Z,960.97
2023-04-02T06:25:28.116Z,960.97
2023-04-02T06:26:28.445Z,960.98
2023-04-02T06:27:28.233Z,960.98
2023-04-02T06:28:28.576Z,960.98
2023-04-02T06:29:28.346Z,960.99
2023-04-02T06:30:28.604Z,961.02
2023-04-02T06:31:29.244Z,961.02
2023-04-02T06:32:28.637Z,961.04
2023-04-02T06:33:28.680Z,961.04
2023-04-02T06:34:28.784Z,961.07
2023-04-02T06:35:28.788Z,961.07
2023-04-02T06:36:28.857Z,961.07
2023-04-02T06:37:28.912Z,961.12
2023-04-02T06:38:28.968Z,961.13
2023-04-02T06:39:29.086Z,961.14
2023-04-02T06:40:30.892Z,961.17
2023-04-02T06:41:29.150Z,961.20
2023-04-02T06:42:29.218Z,961.21
2023-04-02T06:43:29.276Z,961.22
2023-04-02T06:44:29.349Z,961.24
2023-04-02T06:45:29.415Z,961.26
2023-04-02T06:46:29.635Z,961.30
2023-04-02T06:47:29.577Z,961.29
2023-04-02T06:48:29.632Z,961.32
2023-04-02T06:49:29.702Z,961.33
2023-04-02T06:50:30.054Z,961.35
2023-04-02T06:51:29.886Z,961.38
2023-04-02T06:52:29.937Z,961.42
2023-04-02T06:53:29.992Z,961.42
2023-04-02T06:54:30.065Z,961.41
2023-04-02T06:55:30.218Z,961.43
2023-04-02T06:56:30.188Z,961.45
2023-04-02T06:57:30.272Z,961.47
2023-04-02T06:58:30.339Z,961.46
2023-04-02T06:59:30.399Z,961.49
2023-04-02T07:00:30.468Z,961.51
2023-04-02T07:01:30.616Z,961.53
2023-04-02T07:02:30.652Z,961.55
2023-04-02T07:03:30.673Z,961.57
2023-04-02T07:04:30.778Z,961.58
2023-04-02T07:05:31.041Z,961.61
2023-04-02T07:06:30.811Z,961.63
2023-04-02T07:07:30.872Z,961.60
2023-04-02T07:08:30.926Z,961.61
2023-04-02T07:09:31.008Z,961.62
2023-04-02T07:10:31.073Z,961.64
2023-04-02T07:11:31.139Z,961.66
2023-04-02T07:12:31.197Z,961.70
2023-04-02T07:13:31.264Z,961.74
2023-04-02T07:14:31.323Z,961.74
2023-04-02T07:15:32.182Z,961.73
2023-04-02T07:16:31.456Z,961.74
2023-04-02T07:17:31.550Z,961.72
2023-04-02T07:18:31.584Z,961.76
2023-04-02T07:19:31.657Z,961.78
2023-04-02T07:20:31.977Z,961.76
2023-04-02T07:21:31.753Z,961.77
2023-04-02T07:22:32.763Z,961.82
2023-04-02T07:23:31.903Z,961.81
2023-04-02T07:26:25.936Z,961.85
2023-04-02T07:27:26.943Z,961.87
2023-04-02T07:28:27.017Z,961.87
2023-04-02T07:29:27.944Z,961.87
2023-04-02T07:30:27.116Z,961.89
2023-04-02T07:31:27.573Z,961.90
2023-04-02T07:32:27.293Z,961.89
2023-04-02T07:33:27.321Z,961.90
2023-04-02T07:34:27.378Z,961.91
2023-04-02T07:35:27.434Z,961.92
2023-04-02T07:36:27.521Z,961.94
2023-04-02T07:37:27.593Z,961.95
2023-04-02T07:38:27.608Z,961.94
2023-04-02T07:39:27.657Z,961.95
2023-04-02T07:40:27.737Z,961.96
2023-04-02T07:41:27.848Z,961.99
2023-04-02T07:42:27.841Z,961.99
2023-04-02T07:43:27.918Z,962.01
2023-04-02T07:44:27.950Z,962.04
2023-04-02T07:45:28.008Z,962.04
2023-04-02T07:46:28.203Z,962.05
2023-04-02T07:47:28.161Z,962.03
2023-04-02T07:48:28.198Z,962.06
2023-04-02T07:49:28.338Z,962.08
2023-04-02T07:50:28.343Z,962.08
2023-04-02T07:51:28.401Z,962.08
2023-04-02T07:52:28.474Z,962.11
2023-04-02T07:53:28.528Z,962.10
2023-04-02T07:54:28.579Z,962.13
2023-04-02T07:55:28.642Z,962.14
2023-04-02T07:56:29.445Z,962.13
2023-04-02T07:57:28.838Z,962.15
2023-04-02T07:58:28.825Z,962.16
2023-04-02T07:59:28.898Z,962.20
2023-04-02T08:00:29.104Z,962.20
2023-04-02T08:03:23.269Z,962.21
2023-04-02T08:04:24.213Z,962.24
2023-04-02T08:05:24.292Z,962.27
2023-04-02T08:06:25.216Z,962.28
2023-04-02T08:07:24.376Z,962.30
2023-04-02T08:08:24.454Z,962.32
2023-04-02T08:09:24.540Z,962.32
2023-04-02T08:14:06.525Z,962.38
2023-04-02T08:15:07.559Z,962.39
2023-04-02T08:16:08.429Z,962.41
2023-04-02T08:17:07.835Z,962.42
2023-04-02T08:21:56.402Z,962.46
2023-04-02T08:22:57.422Z,962.50
2023-04-02T08:23:58.427Z,962.48
2023-04-02T08:24:57.585Z,962.52
2023-04-02T08:25:58.433Z,962.51
2023-04-02T08:26:57.727Z,962.55
2023-04-02T08:27:57.748Z,962.55
2023-04-02T08:28:57.813Z,962.58
2023-04-02T08:29:58.200Z,962.60
2023-04-02T08:30:57.987Z,962.59
2023-04-02T08:31:57.976Z,962.62
2023-04-02T08:32:58.035Z,962.64
2023-04-02T08:33:58.084Z,962.66
2023-04-02T08:34:59.932Z,962.66
2023-04-02T08:35:58.277Z,962.66
2023-04-02T08:36:58.374Z,962.68
2023-04-02T08:37:58.369Z,962.68
2023-04-02T08:38:58.500Z,962.69
2023-04-02T08:39:58.451Z,962.70
2023-04-02T08:40:58.507Z,962.70
2023-04-02T08:41:59.697Z,962.74
2023-04-02T08:42:58.677Z,962.76
2023-04-02T08:43:58.717Z,962.79
2023-04-02T08:44:58.761Z,962.82
2023-04-02T08:45:58.983Z,962.82
2023-04-02T08:46:58.918Z,962.83
2023-04-02T08:47:59.015Z,962.84
2023-04-02T08:48:59.017Z,962.85
2023-04-02T08:49:59.086Z,962.85
2023-04-02T08:50:59.136Z,962.86
2023-04-02T08:51:59.209Z,962.87
2023-04-02T08:52:59.272Z,962.89
2023-04-02T08:53:59.339Z,962.90
2023-04-02T08:54:59.388Z,962.93
2023-04-02T08:55:59.472Z,962.93
2023-04-02T08:56:59.572Z,962.95
2023-04-02T08:57:59.565Z,962.96
2023-04-02T08:58:59.625Z,962.98
2023-04-02T08:59:59.682Z,963.00
2023-04-02T09:00:59.736Z,963.00
2023-04-02T09:01:59.965Z,963.03
2023-04-02T09:02:59.892Z,963.03
2023-04-02T09:03:59.902Z,963.04
2023-04-02T09:05:00.004Z,963.05
2023-04-02T09:06:00.021Z,963.06
2023-04-02T09:07:00.946Z,963.08
2023-04-02T09:08:02.044Z,963.11
2023-04-02T09:09:00.227Z,963.10
2023-04-02T09:10:00.996Z,963.13
2023-04-02T09:11:00.336Z,963.13
2023-04-02T09:12:00.397Z,963.15
2023-04-02T09:13:00.469Z,963.16
2023-04-02T09:14:00.521Z,963.15
2023-04-02T09:15:01.466Z,963.18
2023-04-02T09:16:00.684Z,963.19
2023-04-02T09:17:00.714Z,963.22
2023-04-02T09:18:00.929Z,963.25
2023-04-02T09:19:00.908Z,963.25
2023-04-02T09:20:00.919Z,963.24
2023-04-02T09:21:00.983Z,963.25
2023-04-02T09:22:01.055Z,963.26
2023-04-02T09:23:01.157Z,963.28
2023-04-02T09:24:02.853Z,963.28
2023-04-02T09:25:01.235Z,963.29
2023-04-02T09:26:04.640Z,963.29
2023-04-02T09:27:01.350Z,963.29
2023-04-02T09:28:01.464Z,963.32
2023-04-02T09:29:01.497Z,963.33
2023-04-02T09:30:01.579Z,963.36
2023-04-02T09:31:01.616Z,963.35
2023-04-02T09:32:01.660Z,963.37
2023-04-02T09:33:01.839Z,963.38
2023-04-02T09:34:02.062Z,963.38
2023-04-02T09:35:03.115Z,963.39
2023-04-02T09:36:01.935Z,963.41
2023-04-02T09:37:01.983Z,963.43
2023-04-02T09:38:02.448Z,963.44
2023-04-02T09:39:02.098Z,963.44
2023-04-02T09:40:02.166Z,963.47
2023-04-02T09:41:02.303Z,963.48
2023-04-02T09:42:05.446Z,963.49
2023-04-02T09:43:02.364Z,963.50
2023-04-02T09:44:02.527Z,963.53
2023-04-02T09:45:02.497Z,963.52
2023-04-02T09:46:02.582Z,963.54
2023-04-02T09:47:02.746Z,963.56
2023-04-02T09:48:02.776Z,963.56
2023-04-02T09:49:02.822Z,963.58
2023-04-02T09:50:02.796Z,963.57
2023-04-02T09:51:02.926Z,963.59
2023-04-02T09:52:03.008Z,963.59
2023-04-02T09:53:03.074Z,963.59
2023-04-02T09:54:03.108Z,963.62
2023-04-02T09:55:03.170Z,963.66
2023-04-02T09:56:03.239Z,963.67
2023-04-02T09:57:03.243Z,963.66
2023-04-02T09:58:03.291Z,963.69
2023-04-02T09:59:03.496Z,963.67
2023-04-02T10:00:04.191Z,963.68
2023-04-02T10:01:03.557Z,963.67
2023-04-02T10:02:03.533Z,963.70
2023-04-02T10:03:03.648Z,963.73
2023-04-02T10:04:03.741Z,963.72
2023-04-02T10:05:03.713Z,963.72
2023-04-02T10:06:03.771Z,963.73
2023-04-02T10:07:04.441Z,963.76
2023-04-02T10:08:03.864Z,963.75
2023-04-02T10:09:03.946Z,963.78
2023-04-02T10:10:03.971Z,963.78
2023-04-02T10:11:04.049Z,963.80
2023-04-02T10:12:04.085Z,963.79
2023-04-02T10:13:04.159Z,963.82
2023-04-02T10:14:04.242Z,963.81
2023-04-02T10:15:04.359Z,963.79
2023-04-02T10:16:04.453Z,963.82
2023-04-02T10:17:04.419Z,963.81
2023-04-02T10:18:04.575Z,963.82
2023-04-02T10:19:06.688Z,963.85
2023-04-02T10:20:04.659Z,963.86
2023-04-02T10:21:04.625Z,963.86
2023-04-02T10:22:04.701Z,963.88
2023-04-02T10:23:06.455Z,963.87
2023-04-02T10:24:05.497Z,963.91
2023-04-02T10:25:04.865Z,963.92
2023-04-02T10:26:04.916Z,963.93
2023-04-02T10:27:04.976Z,963.94
2023-04-02T10:28:05.030Z,963.94
2023-04-02T10:29:06.897Z,963.92
2023-04-02T10:30:05.991Z,963.95
2023-04-02T10:31:05.309Z,963.96
2023-04-02T10:32:05.304Z,963.96
2023-04-02T10:33:05.412Z,963.94
2023-04-02T10:34:05.399Z,963.95
2023-04-02T10:35:05.447Z,963.94
2023-04-02T10:36:06.361Z,963.94
2023-04-02T10:37:05.578Z,963.93
2023-04-02T10:38:05.617Z,963.93
2023-04-02T10:39:05.676Z,963.94
2023-04-02T10:40:12.631Z,963.92
2023-04-02T10:41:05.888Z,963.94
2023-04-02T10:42:05.929Z,963.93
2023-04-02T10:43:05.977Z,963.95
2023-04-02T10:44:16.768Z,963.96
2023-04-02T10:45:06.115Z,963.97
2023-04-02T10:46:06.207Z,963.98
2023-04-02T10:47:06.354Z,964.02
2023-04-02T10:48:06.325Z,964.00
2023-04-02T10:49:06.427Z,964.02
2023-04-02T10:50:06.490Z,964.00
2023-04-02T10:51:08.365Z,964.02
2023-04-02T10:52:08.565Z,964.03
2023-04-02T10:53:07.467Z,964.03
2023-04-02T10:54:06.602Z,964.02
2023-04-02T10:55:06.715Z,964.04
2023-04-02T10:56:06.098Z,964.06
2023-04-02T10:57:06.954Z,964.09
2023-04-02T10:58:06.877Z,964.11
2023-04-02T10:59:07.006Z,964.08
2023-04-02T11:00:07.052Z,964.07
2023-04-02T11:01:07.165Z,964.10
2023-04-02T11:02:07.146Z,964.10
2023-04-02T11:03:07.273Z,964.08
2023-04-02T11:04:08.958Z,964.10
2023-04-02T11:05:07.282Z,964.08
2023-04-02T11:06:07.330Z,964.08
2023-04-02T11:07:14.365Z,964.08
2023-04-02T11:08:07.457Z,964.12
2023-04-02T11:09:07.509Z,964.13
2023-04-02T11:10:07.838Z,964.14
2023-04-02T11:11:07.657Z,964.15
2023-04-02T11:12:07.767Z,964.14
2023-04-02T11:13:07.825Z,964.14
2023-04-02T11:14:07.907Z,964.14
2023-04-02T11:15:07.938Z,964.16
2023-04-02T11:16:09.014Z,964.15
2023-04-02T11:17:08.118Z,964.17
2023-04-02T11:18:08.128Z,964.18
2023-04-02T11:19:08.175Z,964.20
2023-04-02T11:20:08.243Z,964.21
2023-04-02T11:21:08.293Z,964.24
2023-04-02T11:22:08.398Z,964.25
2023-04-02T11:23:08.426Z,964.25
2023-04-02T11:24:08.523Z,964.26
2023-04-02T11:25:08.537Z,964.26
2023-04-02T11:26:08.586Z,964.28
2023-04-02T11:27:08.685Z,964.30
2023-04-02T11:28:08.723Z,964.33
2023-04-02T11:29:08.793Z,964.33
2023-04-02T11:30:08.857Z,964.34
2023-04-02T11:31:10.528Z,964.35
2023-04-02T11:32:08.988Z,964.36
2023-04-02T11:33:09.133Z,964.35
2023-04-02T11:34:09.128Z,964.36
2023-04-02T11:35:09.186Z,964.39
2023-04-02T11:36:09.269Z,964.38
2023-04-02T11:37:09.307Z,964.40
2023-04-02T11:38:09.315Z,964.41
2023-04-02T11:39:16.983Z,964.42
2023-04-02T11:40:09.459Z,964.44
2023-04-02T11:41:09.515Z,964.44
2023-04-02T11:42:09.587Z,964.45
2023-04-02T11:43:09.586Z,964.47
2023-04-02T11:44:09.644Z,964.49
2023-04-02T11:45:09.692Z,964.49
2023-04-02T11:46:09.754Z,964.50
2023-04-02T11:47:09.829Z,964.52
2023-04-02T11:48:09.848Z,964.51
2023-04-02T11:49:09.904Z,964.53
2023-04-02T11:50:10.029Z,964.52
2023-04-02T11:51:10.004Z,964.54
2023-04-02T11:52:12.325Z,964.56
2023-04-02T11:53:10.183Z,964.56
2023-04-02T11:54:10.212Z,964.56
2023-04-02T11:55:10.288Z,964.54
2023-04-02T11:56:10.379Z,964.53
2023-04-02T11:57:10.477Z,964.52
2023-04-02T11:58:10.453Z,964.55
2023-04-02T11:59:10.532Z,964.53
2023-04-02T12:00:10.608Z,964.55
2023-04-02T12:01:10.643Z,964.57
2023-04-02T12:02:11.031Z,964.57
2023-04-02T12:03:11.366Z,964.60
2023-04-02T12:04:10.850Z,964.59
2023-04-02T12:05:11.532Z,964.59
2023-04-02T12:06:10.951Z,964.59
2023-04-02T12:07:11.031Z,964.61
2023-04-02T12:08:11.056Z,964.64
2023-04-02T12:09:11.122Z,964.66
2023-04-02T12:10:11.335Z,964.66
2023-04-02T12:11:11.254Z,964.67
2023-04-02T12:12:11.329Z,964.68
2023-04-02T12:13:11.379Z,964.70
2023-04-02T12:14:11.446Z,964.72
2023-04-02T12:15:11.550Z,964.72
2023-04-02T12:16:11.598Z,964.74
2023-04-02T12:17:11.784Z,964.73
2023-04-02T12:18:11.754Z,964.75
2023-04-02T12:19:11.760Z,964.74
2023-04-02T12:20:11.793Z,964.76
2023-04-02T12:21:11.930Z,964.77
2023-04-02T12:22:11.914Z,964.76
2023-04-02T12:23:12.003Z,964.78
2023-04-02T12:24:12.019Z,964.78
2023-04-02T12:25:12.082Z,964.77
2023-04-02T12:26:12.151Z,964.80
2023-04-02T12:27:12.230Z,964.77
2023-04-02T12:28:12.294Z,964.78
2023-04-02T12:29:12.347Z,964.78
2023-04-02T12:30:12.404Z,964.81
2023-04-02T12:31:12.517Z,964.80
2023-04-02T12:32:12.558Z,964.79
2023-04-02T12:33:12.643Z,964.81
2023-04-02T12:34:12.679Z,964.82
2023-04-02T12:35:12.732Z,964.82
2023-04-02T12:36:12.794Z,964.83
2023-04-02T12:37:13.481Z,964.82
2023-04-02T12:38:12.892Z,964.83
2023-04-02T12:39:13.021Z,964.84
2023-04-02T12:40:13.964Z,964.85
2023-04-02T12:41:13.105Z,964.86